createdAt,value
2023-03-11T00:00:31.095Z,6.30
2023-03-11T00:03:00.789Z,6.50
2023-03-11T00:05:32.289Z,6.30
2023-03-11T00:08:00.884Z,6.40
2023-03-11T00:10:34.200Z,6.90
2023-03-11T00:13:02.626Z,6.90
2023-03-11T00:15:31.395Z,6.97
2023-03-11T00:17:59.287Z,7.10
2023-03-11T00:20:32.748Z,7.87
2023-03-11T00:23:01.217Z,7.77
2023-03-11T00:25:30.832Z,6.57
2023-03-11T00:27:59.068Z,6.00
2023-03-11T00:30:27.273Z,6.57
2023-03-11T00:32:57.262Z,7.50
2023-03-11T00:35:27.847Z,8.67
2023-03-11T00:37:58.144Z,6.40
2023-03-11T00:40:27.996Z,7.43
2023-03-11T00:42:55.753Z,6.97
2023-03-11T00:45:23.822Z,7.17
2023-03-11T00:47:52.957Z,7.87
2023-03-11T00:50:29.852Z,7.90
2023-03-11T00:52:57.667Z,6.70
2023-03-11T00:55:28.634Z,7.30
2023-03-11T00:57:58.570Z,7.07
2023-03-11T01:00:28.022Z,7.00
2023-03-11T01:02:56.348Z,7.60
2023-03-11T01:05:28.020Z,6.77
2023-03-11T01:07:55.847Z,6.80
2023-03-11T01:10:23.632Z,6.13
2023-03-11T01:12:51.195Z,7.27
2023-03-11T01:15:22.621Z,6.87
2023-03-11T01:17:50.466Z,5.93
2023-03-11T01:20:18.360Z,6.90
2023-03-11T01:22:45.946Z,6.57
2023-03-11T01:25:15.617Z,6.00
2023-03-11T01:27:43.811Z,6.30
2023-03-11T01:30:16.365Z,6.27
2023-03-11T01:32:44.160Z,7.03
2023-03-11T01:35:16.433Z,6.60
2023-03-11T01:37:44.608Z,6.57
2023-03-11T01:40:18.160Z,6.67
2023-03-11T01:42:45.732Z,6.97
2023-03-11T01:45:19.503Z,6.10
2023-03-11T01:47:46.994Z,6.30
2023-03-11T01:50:14.709Z,6.70
2023-03-11T01:52:43.993Z,7.40
2023-03-11T01:55:13.989Z,7.80
2023-03-11T01:57:44.095Z,7.43
2023-03-11T02:00:13.591Z,8.50
2023-03-11T02:02:51.667Z,7.87
2023-03-11T02:05:21.944Z,7.03
2023-03-11T02:07:50.866Z,7.57
2023-03-11T02:10:19.092Z,7.70
2023-03-11T02:12:48.723Z,7.70
2023-03-11T02:15:16.360Z,7.20
2023-03-11T02:17:44.480Z,7.03
2023-03-11T02:20:30.534Z,7.37
2023-03-11T02:23:00.231Z,7.23
2023-03-11T02:25:35.036Z,8.50
2023-03-11T02:28:05.910Z,7.20
2023-03-11T02:30:35.054Z,6.37
2023-03-11T02:33:03.416Z,6.47
2023-03-11T02:35:31.970Z,6.80
2023-03-11T02:37:59.535Z,6.97
2023-03-11T02:40:40.089Z,6.60
2023-03-11T02:43:11.927Z,7.10
2023-03-11T02:45:40.359Z,7.27
2023-03-11T02:48:10.666Z,8.13
2023-03-11T02:50:38.853Z,6.77
2023-03-11T02:53:06.883Z,6.03
2023-03-11T02:55:34.525Z,7.10
2023-03-11T02:58:02.412Z,6.13
2023-03-11T03:00:30.052Z,6.03
2023-03-11T03:02:57.888Z,6.43
2023-03-11T03:05:25.671Z,6.60
2023-03-11T03:07:53.244Z,6.40
2023-03-11T03:10:22.622Z,6.40
2023-03-11T03:12:50.407Z,5.67
2023-03-11T03:15:18.101Z,5.43
2023-03-11T03:17:46.521Z,4.97
2023-03-11T03:20:15.365Z,5.83
2023-03-11T03:22:43.630Z,5.33
2023-03-11T03:25:11.510Z,6.03
2023-03-11T03:27:39.446Z,5.50
2023-03-11T03:30:08.402Z,5.03
2023-03-11T03:32:36.818Z,5.70
2023-03-11T03:35:05.562Z,5.90
2023-03-11T03:37:34.881Z,5.63
2023-03-11T03:40:04.023Z,6.30
2023-03-11T03:42:32.110Z,4.93
2023-03-11T03:44:59.672Z,5.00
2023-03-11T03:47:27.194Z,5.50
2023-03-11T03:49:54.767Z,4.90
2023-03-11T03:52:22.333Z,5.40
2023-03-11T03:54:49.911Z,4.97
2023-03-11T03:57:17.807Z,5.10
2023-03-11T03:59:45.330Z,5.33
2023-03-11T04:02:12.956Z,6.03
2023-03-11T04:04:40.715Z,5.20
2023-03-11T04:07:08.275Z,5.50
2023-03-11T04:09:35.854Z,4.57
2023-03-11T04:12:03.455Z,5.57
2023-03-11T04:14:31.195Z,5.80
2023-03-11T04:16:58.875Z,5.40
2023-03-11T04:19:26.512Z,5.80
2023-03-11T04:21:54.190Z,4.90
2023-03-11T04:24:21.933Z,4.93
2023-03-11T04:26:49.469Z,6.33
2023-03-11T04:29:17.040Z,5.37
2023-03-11T04:31:44.744Z,5.27
2023-03-11T04:34:12.461Z,4.73
2023-03-11T04:36:40.039Z,5.60
2023-03-11T04:39:08.018Z,7.03
2023-03-11T04:41:35.670Z,6.23
2023-03-11T04:44:03.246Z,5.30
2023-03-11T04:46:30.813Z,5.40
2023-03-11T04:48:58.571Z,4.60
2023-03-11T04:51:26.314Z,6.43
2023-03-11T04:53:53.869Z,5.23
2023-03-11T04:56:21.574Z,5.40
2023-03-11T04:58:49.128Z,7.03
2023-03-11T05:01:16.684Z,6.53
2023-03-11T05:03:44.329Z,5.10
2023-03-11T05:06:11.886Z,5.87
2023-03-11T05:08:39.463Z,6.50
2023-03-11T05:11:07.425Z,4.80
2023-03-11T05:13:35.246Z,5.40
2023-03-11T05:16:02.926Z,6.50
2023-03-11T05:18:32.421Z,4.80
2023-03-11T05:21:00.394Z,4.67
2023-03-11T05:23:27.896Z,5.70
2023-03-11T05:25:55.475Z,4.90
2023-03-11T05:28:23.144Z,4.70
2023-03-11T05:30:50.995Z,5.63
2023-03-11T05:33:18.592Z,5.20
2023-03-11T05:35:46.276Z,4.73
2023-03-11T05:38:13.863Z,5.80
2023-03-11T05:40:41.881Z,5.00
2023-03-11T05:43:09.465Z,4.87
2023-03-11T05:45:37.005Z,4.80
2023-03-11T05:48:04.765Z,5.10
2023-03-11T05:50:35.313Z,5.20
2023-03-11T05:53:02.880Z,4.83
2023-03-11T05:55:31.008Z,4.93
2023-03-11T05:57:58.634Z,5.60
2023-03-11T06:00:29.397Z,5.30
2023-03-11T06:02:57.092Z,5.13
2023-03-11T06:05:24.766Z,9.87
2023-03-11T06:07:52.386Z,30.97
2023-03-11T06:10:19.984Z,44.43
2023-03-11T06:12:47.584Z,39.60
2023-03-11T06:15:15.284Z,41.07
2023-03-11T06:17:42.845Z,39.33
2023-03-11T06:20:11.134Z,35.80
2023-03-11T06:22:40.260Z,34.93
2023-03-11T06:25:08.512Z,29.07
2023-03-11T06:27:36.166Z,28.23
2023-03-11T06:30:04.064Z,27.73
2023-03-11T06:32:31.790Z,24.67
2023-03-11T06:34:59.319Z,21.80
2023-03-11T06:37:26.917Z,22.40
2023-03-11T06:39:57.245Z,19.30
2023-03-11T06:42:24.847Z,18.43
2023-03-11T06:44:52.408Z,18.13
2023-03-11T06:47:20.215Z,17.40
2023-03-11T06:49:48.051Z,14.67
2023-03-11T06:52:15.586Z,14.43
2023-03-11T06:54:43.472Z,13.70
2023-03-11T06:57:12.148Z,12.33
2023-03-11T06:59:40.286Z,11.57
2023-03-11T07:02:13.042Z,10.47
2023-03-11T07:04:40.907Z,9.67
2023-03-11T07:07:08.501Z,9.17
2023-03-11T07:09:36.427Z,9.40
2023-03-11T07:12:06.415Z,9.43
2023-03-11T07:14:34.370Z,7.93
2023-03-11T07:17:02.421Z,7.20
2023-03-11T07:19:30.134Z,6.70
2023-03-11T07:21:57.889Z,7.17
2023-03-11T07:24:25.616Z,6.60
2023-03-11T07:26:53.149Z,6.40
2023-03-11T07:29:21.166Z,6.50
2023-03-11T07:31:49.444Z,6.30
2023-03-11T07:34:17.268Z,5.10
2023-03-11T07:36:45.283Z,5.33
2023-03-11T07:39:16.197Z,5.53
2023-03-11T07:41:44.609Z,4.63
2023-03-11T07:44:13.987Z,4.33
2023-03-11T07:46:41.796Z,4.93
2023-03-11T07:49:09.431Z,5.00
2023-03-11T07:51:38.699Z,4.23
2023-03-11T07:54:06.349Z,5.00
2023-03-11T07:56:35.745Z,4.10
2023-03-11T07:59:05.270Z,4.30
2023-03-11T08:01:36.933Z,3.43
2023-03-11T08:04:07.325Z,3.73
2023-03-11T08:06:36.867Z,3.00
2023-03-11T08:09:07.620Z,3.97
2023-03-11T08:11:35.773Z,3.70
2023-03-11T08:14:04.162Z,3.83
2023-03-11T08:16:32.139Z,3.90
2023-03-11T08:18:59.796Z,2.80
2023-03-11T08:21:32.493Z,2.90
2023-03-11T08:24:02.413Z,2.77
2023-03-11T08:26:31.599Z,3.20
2023-03-11T08:28:59.812Z,2.70
2023-03-11T08:31:32.757Z,2.37
2023-03-11T08:34:03.674Z,2.97
2023-03-11T08:36:31.629Z,2.50
2023-03-11T08:38:59.639Z,2.17
2023-03-11T08:41:28.328Z,2.87
2023-03-11T08:43:55.900Z,2.37
2023-03-11T08:46:28.221Z,1.90
2023-03-11T08:48:58.637Z,2.03
2023-03-11T08:51:28.376Z,1.70
2023-03-11T08:53:56.109Z,1.70
2023-03-11T08:56:23.826Z,2.03
2023-03-11T08:58:52.117Z,1.27
2023-03-11T09:01:20.523Z,2.33
2023-03-11T09:03:48.417Z,2.33
2023-03-11T09:06:17.489Z,1.80
2023-03-11T09:08:46.530Z,1.90
2023-03-11T09:11:15.350Z,1.50
2023-03-11T09:13:43.829Z,1.70
2023-03-11T09:16:17.379Z,1.60
2023-03-11T09:18:46.843Z,1.40
2023-03-11T09:21:14.468Z,1.37
2023-03-11T09:23:44.161Z,1.60
2023-03-11T09:26:13.310Z,1.70
2023-03-11T09:28:42.046Z,1.40
2023-03-11T09:31:09.879Z,1.40
2023-03-11T09:33:41.549Z,1.20
2023-03-11T09:36:16.391Z,1.30
2023-03-11T09:38:47.696Z,1.70
2023-03-11T09:41:24.178Z,1.77
2023-03-11T09:44:25.246Z,1.50
2023-03-11T09:47:20.274Z,1.03
2023-03-11T09:49:59.816Z,1.50
2023-03-11T09:52:39.345Z,1.10
2023-03-11T09:55:21.860Z,1.03
2023-03-11T09:57:50.723Z,0.90
2023-03-11T10:00:20.838Z,0.90
2023-03-11T10:02:49.692Z,1.37
2023-03-11T10:05:30.626Z,1.20
2023-03-11T10:08:03.979Z,0.70
2023-03-11T10:10:39.421Z,0.87
2023-03-11T10:13:35.958Z,1.00
2023-03-11T10:16:27.250Z,0.87
2023-03-11T10:19:08.854Z,0.70
2023-03-11T10:21:40.816Z,0.90
2023-03-11T10:24:14.797Z,0.90
2023-03-11T10:26:53.238Z,0.77
2023-03-11T10:29:44.463Z,1.17
2023-03-11T10:32:38.476Z,0.80
2023-03-11T10:35:24.076Z,1.00
2023-03-11T10:38:01.192Z,0.83
2023-03-11T10:40:52.413Z,0.80
2023-03-11T10:43:32.128Z,0.83
2023-03-11T10:46:00.197Z,0.70
2023-03-11T10:48:27.969Z,0.70
2023-03-11T10:51:12.735Z,0.60
2023-03-11T10:53:53.364Z,0.80
2023-03-11T10:56:37.455Z,0.87
2023-03-11T10:59:32.441Z,0.50
2023-03-11T11:02:34.133Z,0.50
2023-03-11T11:05:16.523Z,1.27
2023-03-11T11:07:46.134Z,0.60
2023-03-11T11:10:25.821Z,0.50
2023-03-11T11:12:59.771Z,0.50
2023-03-11T11:15:34.442Z,0.60
2023-03-11T11:18:05.331Z,0.90
2023-03-11T11:20:34.112Z,0.50
2023-03-11T11:23:04.084Z,0.50
2023-03-11T11:25:33.967Z,0.60
2023-03-11T11:28:19.190Z,0.50
2023-03-11T11:30:58.630Z,0.77
2023-03-11T11:33:31.303Z,0.50
2023-03-11T11:36:02.611Z,0.50
2023-03-11T11:38:32.059Z,0.60
2023-03-11T11:41:03.983Z,0.60
2023-03-11T11:43:56.167Z,0.50
2023-03-11T11:46:27.373Z,0.67
2023-03-11T11:49:07.814Z,0.70
2023-03-11T11:51:59.593Z,0.63
2023-03-11T11:54:32.604Z,0.73
2023-03-11T11:57:02.335Z,0.73
2023-03-11T11:59:31.519Z,0.50
2023-03-11T12:02:21.757Z,0.50
2023-03-11T12:04:55.158Z,0.60
2023-03-11T12:07:45.265Z,0.50
2023-03-11T12:10:48.116Z,0.50
2023-03-11T12:13:30.649Z,0.60
2023-03-11T12:16:06.248Z,0.60
2023-03-11T12:18:38.646Z,0.50
2023-03-11T12:21:33.902Z,0.50
2023-03-11T12:24:21.382Z,0.60
2023-03-11T12:26:51.440Z,0.60
2023-03-11T12:29:30.821Z,0.50
2023-03-11T12:32:02.000Z,0.90
2023-03-11T12:34:31.703Z,0.50
2023-03-11T12:37:03.685Z,0.70
2023-03-11T12:39:36.005Z,0.83
2023-03-11T12:42:12.334Z,0.90
2023-03-11T12:44:41.177Z,0.57
2023-03-11T12:47:09.010Z,0.70
2023-03-11T12:49:37.792Z,0.70
2023-03-11T12:52:06.784Z,0.70
2023-03-11T12:54:37.003Z,0.70
2023-03-11T12:57:11.958Z,0.50
2023-03-11T12:59:57.919Z,0.40
2023-03-11T13:02:47.922Z,0.60
2023-03-11T13:05:43.067Z,0.97
2023-03-11T13:08:17.450Z,0.60
2023-03-11T13:10:53.314Z,0.97
2023-03-11T13:13:29.938Z,0.50
2023-03-11T13:15:58.335Z,0.50
2023-03-11T13:18:30.816Z,1.30
2023-03-11T13:21:03.076Z,0.60
2023-03-11T13:23:37.911Z,0.67
2023-03-11T13:26:25.862Z,0.67
2023-03-11T13:29:15.322Z,0.60
2023-03-11T13:32:01.577Z,0.67
2023-03-11T13:34:46.995Z,0.63
2023-03-11T13:37:41.040Z,0.70
2023-03-11T13:40:28.932Z,1.17
2023-03-11T13:43:03.861Z,0.77
2023-03-11T13:45:35.455Z,0.70
2023-03-11T13:48:14.610Z,1.17
2023-03-11T13:50:57.265Z,0.60
2023-03-11T13:53:37.903Z,0.77
2023-03-11T13:56:06.054Z,0.70
2023-03-11T13:58:33.637Z,0.90
2023-03-11T14:01:02.813Z,0.83
2023-03-11T14:03:41.059Z,0.50
2023-03-11T14:06:12.766Z,0.80
2023-03-11T14:08:40.735Z,0.90
2023-03-11T14:11:10.998Z,0.87
2023-03-11T14:13:43.899Z,0.73
2023-03-11T14:16:44.384Z,0.80
2023-03-11T14:19:17.452Z,1.30
2023-03-11T14:21:52.055Z,4.43
2023-03-11T14:24:23.602Z,4.00
2023-03-11T14:26:56.385Z,2.57
2023-03-11T14:29:32.830Z,3.20
2023-03-11T14:32:00.825Z,3.50
2023-03-11T14:34:30.502Z,2.70
2023-03-11T14:37:00.362Z,2.50
2023-03-11T14:39:39.203Z,2.27
2023-03-11T14:42:32.747Z,1.90
2023-03-11T14:45:15.218Z,2.67
2023-03-11T14:48:02.198Z,2.50
2023-03-11T14:50:32.982Z,1.90
2023-03-11T14:53:16.634Z,1.43
2023-03-11T14:55:56.503Z,1.83
2023-03-11T14:58:46.422Z,2.00
2023-03-11T15:01:19.632Z,2.70
2023-03-11T15:03:56.181Z,1.97
2023-03-11T15:06:29.294Z,2.03
2023-03-11T15:09:01.880Z,1.33
2023-03-11T15:11:29.934Z,1.00
2023-03-11T15:14:22.575Z,1.10
2023-03-11T15:16:51.125Z,0.97
2023-03-11T15:19:34.680Z,1.07
2023-03-11T15:22:28.163Z,1.03
2023-03-11T15:25:01.776Z,1.33
2023-03-11T15:27:35.068Z,1.77
2023-03-11T15:30:06.120Z,1.60
2023-03-11T15:32:40.914Z,2.30
2023-03-11T15:35:08.528Z,2.43
2023-03-11T15:37:36.429Z,2.23
2023-03-11T15:40:35.293Z,1.93
2023-03-11T15:43:43.038Z,1.60
2023-03-11T15:46:11.723Z,1.13
2023-03-11T15:48:39.503Z,1.10
2023-03-11T15:51:07.175Z,1.43
2023-03-11T15:53:34.709Z,1.30
2023-03-11T15:56:11.207Z,1.00
2023-03-11T15:58:39.200Z,1.27
2023-03-11T16:01:07.669Z,2.33
2023-03-11T16:03:35.397Z,1.10
2023-03-11T16:06:02.971Z,1.07
2023-03-11T16:08:30.607Z,1.30
2023-03-11T16:10:58.423Z,1.10
2023-03-11T16:13:25.967Z,0.90
2023-03-11T16:15:53.766Z,1.10
2023-03-11T16:18:21.454Z,1.67
2023-03-11T16:20:52.094Z,1.20
2023-03-11T16:23:21.221Z,0.70
2023-03-11T16:25:49.307Z,1.10
2023-03-11T16:28:17.479Z,0.80
2023-03-11T16:30:45.515Z,1.20
2023-03-11T16:33:13.057Z,1.20
2023-03-11T16:35:40.695Z,1.53
2023-03-11T16:38:09.212Z,0.93
2023-03-11T16:40:37.264Z,1.27
2023-03-11T16:43:10.128Z,1.00
2023-03-11T16:45:37.757Z,1.10
2023-03-11T16:48:05.904Z,0.90
2023-03-11T16:50:36.258Z,1.07
2023-03-11T16:53:05.339Z,0.80
2023-03-11T16:55:33.172Z,0.83
2023-03-11T16:58:00.806Z,0.93
2023-03-11T17:00:28.532Z,0.90
2023-03-11T17:02:56.052Z,1.00
2023-03-11T17:05:23.719Z,0.80
2023-03-11T17:07:57.441Z,0.93
2023-03-11T17:10:25.113Z,0.97
2023-03-11T17:12:53.068Z,0.87
2023-03-11T17:15:20.926Z,1.00
2023-03-11T17:17:48.527Z,0.77
2023-03-11T17:20:16.848Z,0.90
2023-03-11T17:22:44.405Z,0.60
2023-03-11T17:25:11.995Z,0.80
2023-03-11T17:27:39.550Z,0.70
2023-03-11T17:30:08.184Z,0.80
2023-03-11T17:32:35.802Z,0.53
2023-03-11T17:35:03.828Z,1.07
2023-03-11T17:37:31.679Z,0.50
2023-03-11T17:39:59.261Z,0.70
2023-03-11T17:42:26.856Z,0.70
2023-03-11T17:44:57.241Z,0.80
2023-03-11T17:47:34.334Z,0.87
2023-03-11T17:50:03.246Z,0.90
2023-03-11T17:52:31.176Z,1.00
2023-03-11T17:54:58.934Z,2.00
2023-03-11T17:57:26.495Z,2.07
2023-03-11T17:59:54.173Z,5.73
2023-03-11T18:02:21.942Z,8.43
2023-03-11T18:04:54.081Z,7.33
2023-03-11T18:07:23.817Z,5.70
2023-03-11T18:09:55.452Z,9.50
2023-03-11T18:12:23.132Z,19.00
2023-03-11T18:14:50.760Z,10.83
2023-03-11T18:17:19.263Z,5.63
2023-03-11T18:19:47.276Z,6.53
2023-03-11T18:22:16.287Z,6.00
2023-03-11T18:24:43.899Z,4.80
2023-03-11T18:27:11.395Z,3.40
2023-03-11T18:29:39.263Z,3.00
2023-03-11T18:32:06.887Z,2.70
2023-03-11T18:34:34.556Z,3.60
2023-03-11T18:37:05.190Z,4.67
2023-03-11T18:39:32.809Z,5.57
2023-03-11T18:42:00.495Z,4.87
2023-03-11T18:44:30.744Z,7.50
2023-03-11T18:46:58.428Z,11.97
2023-03-11T18:49:26.091Z,8.10
2023-03-11T18:51:53.648Z,5.00
2023-03-11T18:54:21.699Z,9.30
2023-03-11T18:56:50.595Z,8.50
2023-03-11T18:59:18.411Z,7.10
2023-03-11T19:01:46.001Z,6.47
2023-03-11T19:04:13.790Z,4.17
2023-03-11T19:06:41.378Z,3.20
2023-03-11T19:09:11.217Z,3.37
2023-03-11T19:11:38.842Z,2.50
2023-03-11T19:14:06.555Z,2.67
2023-03-11T19:16:34.256Z,2.40
2023-03-11T19:19:02.016Z,2.13
2023-03-11T19:21:29.742Z,2.20
2023-03-11T19:23:58.121Z,2.03
2023-03-11T19:26:43.178Z,1.73
2023-03-11T19:29:11.969Z,2.80
2023-03-11T19:31:39.543Z,1.50
2023-03-11T19:34:07.216Z,1.53
2023-03-11T19:36:35.084Z,1.60
2023-03-11T19:39:02.661Z,1.63
2023-03-11T19:41:30.324Z,1.30
2023-03-11T19:43:57.888Z,1.37
2023-03-11T19:46:25.840Z,1.40
2023-03-11T19:48:56.972Z,0.83
2023-03-11T19:51:26.715Z,1.00
2023-03-11T19:53:56.253Z,1.07
2023-03-11T19:56:27.812Z,1.07
2023-03-11T19:58:56.586Z,1.27
2023-03-11T20:01:25.641Z,1.63
2023-03-11T20:03:53.335Z,1.03
2023-03-11T20:06:22.971Z,1.47
2023-03-11T20:08:53.526Z,1.13
2023-03-11T20:11:21.301Z,0.90
2023-03-11T20:13:48.939Z,1.17
2023-03-11T20:16:19.463Z,1.00
2023-03-11T20:18:51.304Z,0.80
2023-03-11T20:21:19.147Z,0.73
2023-03-11T20:23:46.763Z,1.20
2023-03-11T20:26:16.392Z,0.60
2023-03-11T20:28:44.299Z,1.20
2023-03-11T20:31:18.161Z,1.50
2023-03-11T20:33:46.561Z,0.90
2023-03-11T20:36:17.853Z,0.90
2023-03-11T20:38:45.727Z,0.80
2023-03-11T20:41:13.711Z,0.87
2023-03-11T20:43:42.258Z,1.30
2023-03-11T20:46:11.110Z,1.13
2023-03-11T20:48:39.814Z,0.70
2023-03-11T20:51:14.011Z,1.00
2023-03-11T20:53:42.087Z,0.70
2023-03-11T20:56:18.882Z,0.80
2023-03-11T20:58:48.970Z,1.03
2023-03-11T21:01:23.183Z,0.60
2023-03-11T21:03:56.543Z,0.83
2023-03-11T21:06:35.747Z,0.77
2023-03-11T21:09:06.482Z,0.90
2023-03-11T21:11:34.805Z,0.60
2023-03-11T21:14:02.799Z,0.90
2023-03-11T21:16:31.497Z,0.93
2023-03-11T21:18:59.447Z,0.60
2023-03-11T21:21:27.099Z,1.20
2023-03-11T21:23:54.997Z,0.90
2023-03-11T21:26:22.656Z,0.80
2023-03-11T21:28:53.540Z,0.90
2023-03-11T21:31:23.289Z,2.70
2023-03-11T21:33:55.646Z,0.70
2023-03-11T21:36:23.730Z,1.00
2023-03-11T21:38:51.795Z,0.93
2023-03-11T21:41:24.235Z,1.47
2023-03-11T21:43:53.455Z,0.83
2023-03-11T21:46:24.244Z,0.87
2023-03-11T21:48:52.054Z,1.50
2023-03-11T21:51:21.326Z,2.50
2023-03-11T21:53:49.120Z,0.90
2023-03-11T21:56:17.042Z,1.30
2023-03-11T21:58:44.969Z,1.57
2023-03-11T22:01:13.195Z,1.40
2023-03-11T22:03:42.753Z,1.03
2023-03-11T22:06:12.557Z,1.27
2023-03-11T22:08:43.170Z,1.23
2023-03-11T22:11:17.912Z,1.00
2023-03-11T22:13:47.508Z,1.07
2023-03-11T22:16:15.340Z,0.90
2023-03-11T22:18:43.482Z,1.00
2023-03-11T22:21:11.558Z,1.00
2023-03-11T22:23:39.290Z,0.87
2023-03-11T22:26:06.884Z,1.20
2023-03-11T22:28:34.434Z,0.97
2023-03-11T22:31:10.427Z,1.47
2023-03-11T22:33:38.130Z,1.00
2023-03-11T22:36:06.511Z,1.30
2023-03-11T22:38:34.529Z,0.97
2023-03-11T22:41:05.659Z,1.77
2023-03-11T22:43:34.021Z,1.10
2023-03-11T22:46:02.633Z,1.40
2023-03-11T22:48:30.495Z,1.60
2023-03-11T22:50:58.377Z,0.97
2023-03-11T22:53:26.019Z,1.00
2023-03-11T22:55:53.850Z,1.50
2023-03-11T22:58:21.664Z,0.90
2023-03-11T23:00:49.335Z,1.17
2023-03-11T23:03:17.457Z,1.20
2023-03-11T23:05:46.787Z,1.63
2023-03-11T23:08:16.686Z,1.50
2023-03-11T23:10:46.850Z,2.40
2023-03-11T23:13:14.880Z,1.77
2023-03-11T23:15:45.561Z,1.57
2023-03-11T23:18:14.170Z,0.80
2023-03-11T23:20:43.691Z,1.73
2023-03-11T23:23:12.382Z,1.07
2023-03-11T23:25:41.582Z,1.50
2023-03-11T23:28:09.396Z,1.90
2023-03-11T23:30:37.056Z,1.10
2023-03-11T23:33:04.750Z,1.17
2023-03-11T23:35:33.507Z,1.50
2023-03-11T23:38:01.353Z,1.40
2023-03-11T23:40:28.886Z,1.23
2023-03-11T23:42:56.523Z,0.90
2023-03-11T23:45:24.147Z,0.80
2023-03-11T23:47:51.758Z,1.40
2023-03-11T23:50:19.374Z,0.90
2023-03-11T23:52:46.932Z,1.17
2023-03-11T23:55:14.527Z,0.90
2023-03-11T23:57:42.143Z,0.80
